createdAt,value
2018-11-11T00:00:45.859Z,19.5
2018-11-11T00:01:46.017Z,19.5
2018-11-11T00:02:46.044Z,19.51
2018-11-11T00:03:46.997Z,19.51
2018-11-11T00:04:45.548Z,19.5
2018-11-11T00:05:45.389Z,19.5
2018-11-11T00:06:45.500Z,19.5
2018-11-11T00:07:45.748Z,19.5
2018-11-11T00:08:45.312Z,19.5
2018-11-11T00:09:45.606Z,19.5
2018-11-11T00:10:45.608Z,19.5
2018-11-11T00:11:45.535Z,19.49
2018-11-11T00:12:45.526Z,19.49
2018-11-11T00:13:45.495Z,19.49
2018-11-11T00:14:45.840Z,19.48
2018-11-11T00:15:45.582Z,19.48
2018-11-11T00:16:45.376Z,19.48
2018-11-11T00:17:45.511Z,19.49
2018-11-11T00:18:45.653Z,19.49
2018-11-11T00:19:45.452Z,19.48
2018-11-11T00:20:45.613Z,19.47
2018-11-11T00:21:45.815Z,19.47
2018-11-11T00:22:45.543Z,19.47
2018-11-11T00:23:45.370Z,19.47
2018-11-11T00:24:45.503Z,19.47
2018-11-11T00:25:45.368Z,19.48
2018-11-11T00:26:45.344Z,19.48
2018-11-11T00:27:45.621Z,19.47
2018-11-11T00:28:45.660Z,19.47
2018-11-11T00:29:45.595Z,19.47
2018-11-11T00:30:45.608Z,19.45
2018-11-11T00:31:45.629Z,19.47
2018-11-11T00:32:45.960Z,19.46
2018-11-11T00:33:45.436Z,19.47
2018-11-11T00:34:45.628Z,19.46
2018-11-11T00:35:45.350Z,19.46
2018-11-11T00:36:45.957Z,19.46
2018-11-11T00:37:45.693Z,19.46
2018-11-11T00:38:45.849Z,19.46
2018-11-11T00:39:45.734Z,19.44
2018-11-11T00:40:45.633Z,19.46
2018-11-11T00:41:45.479Z,19.46
2018-11-11T00:42:45.698Z,19.45
2018-11-11T00:43:45.632Z,19.46
2018-11-11T00:44:45.427Z,19.46
2018-11-11T00:45:45.512Z,19.45
2018-11-11T00:46:45.677Z,19.45
2018-11-11T00:47:45.638Z,19.45
2018-11-11T00:48:45.481Z,19.45
2018-11-11T00:49:45.451Z,19.45
2018-11-11T00:50:45.656Z,19.45
2018-11-11T00:51:45.880Z,19.44
2018-11-11T00:52:45.684Z,19.44
2018-11-11T00:53:45.996Z,19.44
2018-11-11T00:54:45.515Z,19.44
2018-11-11T00:55:45.606Z,19.45
2018-11-11T00:56:45.822Z,19.44
2018-11-11T00:57:45.621Z,19.43
2018-11-11T00:58:45.331Z,19.44
2018-11-11T00:59:45.577Z,19.44
2018-11-11T01:00:45.506Z,19.43
2018-11-11T01:01:45.691Z,19.44
2018-11-11T01:02:45.420Z,19.43
2018-11-11T01:03:45.502Z,19.43
2018-11-11T01:04:45.608Z,19.42
2018-11-11T01:05:45.770Z,19.42
2018-11-11T01:06:45.329Z,19.42
2018-11-11T01:07:45.533Z,19.41
2018-11-11T01:08:45.553Z,19.41
2018-11-11T01:09:45.488Z,19.41
2018-11-11T01:10:45.644Z,19.41
2018-11-11T01:11:45.687Z,19.4
2018-11-11T01:12:45.990Z,19.41
2018-11-11T01:13:45.617Z,19.41
2018-11-11T01:14:45.594Z,19.41
2018-11-11T01:15:45.522Z,19.4
2018-11-11T01:16:45.583Z,19.4
2018-11-11T01:17:45.643Z,19.4
2018-11-11T01:18:45.828Z,19.4
2018-11-11T01:19:45.876Z,19.41
2018-11-11T01:20:45.404Z,19.4
2018-11-11T01:21:45.773Z,19.41
2018-11-11T01:22:46.178Z,19.4
2018-11-11T01:23:45.910Z,19.38
2018-11-11T01:24:45.796Z,19.39
2018-11-11T01:25:45.689Z,19.4
2018-11-11T01:26:45.726Z,19.4
2018-11-11T01:27:45.442Z,19.39
2018-11-11T01:28:45.890Z,19.38
2018-11-11T01:29:45.935Z,19.39
2018-11-11T01:30:45.583Z,19.39
2018-11-11T01:31:45.388Z,19.39
2018-11-11T01:32:45.639Z,19.39
2018-11-11T01:33:45.851Z,19.38
2018-11-11T01:34:45.355Z,19.39
2018-11-11T01:35:45.526Z,19.38
2018-11-11T01:36:45.491Z,19.38
2018-11-11T01:37:45.331Z,19.38
2018-11-11T01:38:45.538Z,19.38
2018-11-11T01:39:45.548Z,19.37
2018-11-11T01:40:45.473Z,19.36
2018-11-11T01:41:45.555Z,19.37
2018-11-11T01:42:46.395Z,19.38
2018-11-11T01:43:45.480Z,19.36
2018-11-11T01:44:45.436Z,19.36
2018-11-11T01:45:45.464Z,19.36
2018-11-11T01:46:45.335Z,19.36
2018-11-11T01:47:45.839Z,19.36
2018-11-11T01:48:45.411Z,19.36
2018-11-11T01:49:45.527Z,19.36
2018-11-11T01:50:45.567Z,19.36
2018-11-11T01:51:45.504Z,19.36
2018-11-11T01:52:45.440Z,19.36
2018-11-11T01:53:45.383Z,19.36
2018-11-11T01:54:45.485Z,19.35
2018-11-11T01:55:45.522Z,19.35
2018-11-11T01:56:45.564Z,19.35
2018-11-11T01:57:45.594Z,19.36
2018-11-11T01:58:45.573Z,19.35
2018-11-11T01:59:45.977Z,19.35
2018-11-11T02:00:45.420Z,19.34
2018-11-11T02:01:45.506Z,19.34
2018-11-11T02:02:45.698Z,19.35
2018-11-11T02:03:45.775Z,19.35
2018-11-11T02:04:45.792Z,19.35
2018-11-11T02:05:45.466Z,19.34
2018-11-11T02:06:45.375Z,19.34
2018-11-11T02:07:45.570Z,19.34
2018-11-11T02:08:45.564Z,19.34
2018-11-11T02:09:45.762Z,19.34
2018-11-11T02:10:45.343Z,19.34
2018-11-11T02:11:45.355Z,19.34
2018-11-11T02:12:45.600Z,19.33
2018-11-11T02:13:45.656Z,19.34
2018-11-11T02:14:45.602Z,19.33
2018-11-11T02:15:45.419Z,19.33
2018-11-11T02:16:45.759Z,19.32
2018-11-11T02:17:46.006Z,19.32
2018-11-11T02:18:45.520Z,19.33
2018-11-11T02:19:45.259Z,19.32
2018-11-11T02:20:45.399Z,19.32
2018-11-11T02:21:45.630Z,19.32
2018-11-11T02:22:46.037Z,19.33
2018-11-11T02:23:45.623Z,19.31
2018-11-11T02:24:45.646Z,19.31
2018-11-11T02:25:45.745Z,19.31
2018-11-11T02:26:45.539Z,19.32
2018-11-11T02:27:45.649Z,19.32
2018-11-11T02:28:45.362Z,19.32
2018-11-11T02:29:45.355Z,19.33
2018-11-11T02:30:45.616Z,19.32
2018-11-11T02:31:45.659Z,19.32
2018-11-11T02:32:45.444Z,19.31
2018-11-11T02:33:45.672Z,19.31
2018-11-11T02:34:45.397Z,19.32
2018-11-11T02:35:45.915Z,19.32
2018-11-11T02:36:45.608Z,19.3
2018-11-11T02:37:45.792Z,19.31
2018-11-11T02:38:45.381Z,19.32
2018-11-11T02:39:45.944Z,19.31
2018-11-11T02:40:45.804Z,19.31
2018-11-11T02:41:45.493Z,19.31
2018-11-11T02:42:45.614Z,19.3
2018-11-11T02:43:45.648Z,19.3
2018-11-11T02:44:45.636Z,19.31
2018-11-11T02:45:45.372Z,19.31
2018-11-11T02:46:45.287Z,19.31
2018-11-11T02:47:45.742Z,19.3
2018-11-11T02:48:45.940Z,19.3
2018-11-11T02:49:45.748Z,19.3
2018-11-11T02:50:45.399Z,19.29
2018-11-11T02:51:45.813Z,19.3
2018-11-11T02:52:45.601Z,19.29
2018-11-11T02:53:45.665Z,19.3
2018-11-11T02:54:45.379Z,19.29
2018-11-11T02:55:45.266Z,19.29
2018-11-11T02:56:45.374Z,19.29
2018-11-11T02:57:45.555Z,19.28
2018-11-11T02:58:45.461Z,19.28
2018-11-11T02:59:45.781Z,19.28
2018-11-11T03:00:45.800Z,19.29
2018-11-11T03:01:45.576Z,19.29
2018-11-11T03:02:45.607Z,19.28
2018-11-11T03:03:45.408Z,19.28
2018-11-11T03:04:45.332Z,19.27
2018-11-11T03:05:45.645Z,19.28
2018-11-11T03:06:45.574Z,19.27
2018-11-11T03:07:45.722Z,19.27
2018-11-11T03:08:45.757Z,19.27
2018-11-11T03:09:45.466Z,19.27
2018-11-11T03:10:45.525Z,19.28
2018-11-11T03:11:45.371Z,19.28
2018-11-11T03:12:45.417Z,19.27
2018-11-11T03:13:45.309Z,19.27
2018-11-11T03:14:45.499Z,19.28
2018-11-11T03:15:45.446Z,19.28
2018-11-11T03:16:45.468Z,19.27
2018-11-11T03:17:45.710Z,19.27
2018-11-11T03:18:45.434Z,19.27
2018-11-11T03:19:45.523Z,19.26
2018-11-11T03:20:45.627Z,19.26
2018-11-11T03:21:45.515Z,19.27
2018-11-11T03:22:45.332Z,19.27
2018-11-11T03:23:45.357Z,19.26
2018-11-11T03:24:45.534Z,19.26
2018-11-11T03:25:45.457Z,19.26
2018-11-11T03:26:45.608Z,19.26
2018-11-11T03:27:45.373Z,19.26
2018-11-11T03:28:45.521Z,19.25
2018-11-11T03:29:45.435Z,19.25
2018-11-11T03:30:45.513Z,19.25
2018-11-11T03:31:45.583Z,19.25
2018-11-11T03:32:45.590Z,19.25
2018-11-11T03:33:45.825Z,19.26
2018-11-11T03:34:45.623Z,19.26
2018-11-11T03:35:45.497Z,19.25
2018-11-11T03:36:45.315Z,19.25
2018-11-11T03:37:45.423Z,19.24
2018-11-11T03:38:45.409Z,19.25
2018-11-11T03:39:45.664Z,19.24
2018-11-11T03:40:45.328Z,19.25
2018-11-11T03:41:45.388Z,19.25
2018-11-11T03:42:45.883Z,19.24
2018-11-11T03:43:45.377Z,19.25
2018-11-11T03:44:45.583Z,19.24
2018-11-11T03:45:45.324Z,19.25
2018-11-11T03:46:45.564Z,19.24
2018-11-11T03:47:45.707Z,19.23
2018-11-11T03:48:45.748Z,19.23
2018-11-11T03:49:45.244Z,19.23
2018-11-11T03:50:45.454Z,19.23
2018-11-11T03:51:45.638Z,19.23
2018-11-11T03:52:45.480Z,19.23
2018-11-11T03:53:45.536Z,19.22
2018-11-11T03:54:45.401Z,19.24
2018-11-11T03:55:45.515Z,19.23
2018-11-11T03:56:45.763Z,19.23
2018-11-11T03:57:45.415Z,19.23
2018-11-11T03:58:45.749Z,19.22
2018-11-11T03:59:45.813Z,19.22
2018-11-11T04:00:45.756Z,19.22
2018-11-11T04:01:45.425Z,19.22
2018-11-11T04:02:45.578Z,19.22
2018-11-11T04:03:45.291Z,19.22
2018-11-11T04:04:45.807Z,19.22
2018-11-11T04:05:45.327Z,19.21
2018-11-11T04:06:45.774Z,19.21
2018-11-11T04:07:45.397Z,19.21
2018-11-11T04:08:45.866Z,19.21
2018-11-11T04:09:45.892Z,19.22
2018-11-11T04:10:45.386Z,19.21
2018-11-11T04:11:45.664Z,19.21
2018-11-11T04:12:45.645Z,19.21
2018-11-11T04:13:45.911Z,19.21
2018-11-11T04:14:45.456Z,19.2
2018-11-11T04:15:45.528Z,19.21
2018-11-11T04:16:45.495Z,19.2
2018-11-11T04:17:45.710Z,19.2
2018-11-11T04:18:45.566Z,19.2
2018-11-11T04:19:45.411Z,19.2
2018-11-11T04:20:45.325Z,19.2
2018-11-11T04:21:45.839Z,19.19
2018-11-11T04:22:45.499Z,19.19
2018-11-11T04:23:45.480Z,19.2
2018-11-11T04:24:45.591Z,19.2
2018-11-11T04:25:45.293Z,19.19
2018-11-11T04:26:45.787Z,19.2
2018-11-11T04:27:45.370Z,19.2
2018-11-11T04:28:45.513Z,19.2
2018-11-11T04:29:45.600Z,19.2
2018-11-11T04:30:45.603Z,19.2
2018-11-11T04:31:45.640Z,19.19
2018-11-11T04:32:45.451Z,19.19
2018-11-11T04:33:45.765Z,19.19
2018-11-11T04:34:45.314Z,19.19
2018-11-11T04:35:45.520Z,19.19
2018-11-11T04:36:45.458Z,19.2
2018-11-11T04:37:45.414Z,19.2
2018-11-11T04:38:45.345Z,19.2
2018-11-11T04:39:45.322Z,19.19
2018-11-11T04:40:45.504Z,19.19
2018-11-11T04:41:45.572Z,19.19
2018-11-11T04:42:45.544Z,19.18
2018-11-11T04:43:45.287Z,19.18
2018-11-11T04:44:45.485Z,19.18
2018-11-11T04:45:45.475Z,19.18
2018-11-11T04:46:45.725Z,19.19
2018-11-11T04:47:45.372Z,19.19
2018-11-11T04:48:45.465Z,19.18
2018-11-11T04:49:45.630Z,19.18
2018-11-11T04:50:45.306Z,19.18
2018-11-11T04:51:45.474Z,19.2
2018-11-11T04:52:45.863Z,19.2
2018-11-11T04:53:45.492Z,19.2
2018-11-11T04:54:45.250Z,19.2
2018-11-11T04:55:45.595Z,19.21
2018-11-11T04:56:45.262Z,19.21
2018-11-11T04:57:45.235Z,19.22
2018-11-11T04:58:45.512Z,19.21
2018-11-11T04:59:45.486Z,19.21
2018-11-11T05:00:45.734Z,19.22
2018-11-11T05:01:45.245Z,19.22
2018-11-11T05:02:45.747Z,19.23
2018-11-11T05:03:45.300Z,19.23
2018-11-11T05:04:45.705Z,19.25
2018-11-11T05:05:45.669Z,19.24
2018-11-11T05:06:45.236Z,19.25
2018-11-11T05:07:45.559Z,19.26
2018-11-11T05:08:45.238Z,19.26
2018-11-11T05:09:45.396Z,19.27
2018-11-11T05:10:45.606Z,19.28
2018-11-11T05:11:45.322Z,19.29
2018-11-11T05:12:45.511Z,19.3
2018-11-11T05:13:45.631Z,19.31
2018-11-11T05:14:45.530Z,19.31
2018-11-11T05:15:45.224Z,19.31
2018-11-11T05:16:45.518Z,19.33
2018-11-11T05:17:45.372Z,19.34
2018-11-11T05:18:45.430Z,19.34
2018-11-11T05:19:45.233Z,19.35
2018-11-11T05:20:45.433Z,19.38
2018-11-11T05:21:46.096Z,19.39
2018-11-11T05:22:45.612Z,19.4
2018-11-11T05:23:45.972Z,19.42
2018-11-11T05:24:45.352Z,19.43
2018-11-11T05:25:45.441Z,19.45
2018-11-11T05:26:45.557Z,19.45
2018-11-11T05:27:45.590Z,19.46
2018-11-11T05:28:45.608Z,19.47
2018-11-11T05:29:45.441Z,19.49
2018-11-11T05:30:45.522Z,19.5
2018-11-11T05:31:45.681Z,19.51
2018-11-11T05:32:45.442Z,19.53
2018-11-11T05:33:45.540Z,19.54
2018-11-11T05:34:45.474Z,19.53
2018-11-11T05:35:45.276Z,19.55
2018-11-11T05:36:45.358Z,19.56
2018-11-11T05:37:45.508Z,19.58
2018-11-11T05:38:45.796Z,19.58
2018-11-11T05:39:45.481Z,19.6
2018-11-11T05:40:45.294Z,19.6
2018-11-11T05:41:45.915Z,19.61
2018-11-11T05:42:46.815Z,19.62
2018-11-11T05:43:45.777Z,19.63
2018-11-11T05:44:45.579Z,19.65
2018-11-11T05:45:45.710Z,19.65
2018-11-11T05:46:45.208Z,19.66
2018-11-11T05:47:45.190Z,19.67
2018-11-11T05:48:45.520Z,19.68
2018-11-11T05:49:45.453Z,19.68
2018-11-11T05:50:45.544Z,19.69
2018-11-11T05:51:45.230Z,19.7
2018-11-11T05:52:45.969Z,19.71
2018-11-11T05:53:45.281Z,19.71
2018-11-11T05:54:45.309Z,19.72
2018-11-11T05:55:45.482Z,19.73
2018-11-11T05:56:45.417Z,19.73
2018-11-11T05:57:45.396Z,19.73
2018-11-11T05:58:45.388Z,19.75
2018-11-11T05:59:45.836Z,19.76
2018-11-11T06:00:45.403Z,19.76
2018-11-11T06:01:45.643Z,19.77
2018-11-11T06:02:45.723Z,19.77
2018-11-11T06:03:45.446Z,19.79
2018-11-11T06:04:45.215Z,19.79
2018-11-11T06:05:45.572Z,19.8
2018-11-11T06:06:45.785Z,19.8
2018-11-11T06:07:45.372Z,19.8
2018-11-11T06:08:45.510Z,19.8
2018-11-11T06:09:45.240Z,19.8
2018-11-11T06:10:45.496Z,19.82
2018-11-11T06:11:45.265Z,19.81
2018-11-11T06:12:45.675Z,19.82
2018-11-11T06:13:45.547Z,19.82
2018-11-11T06:14:45.188Z,19.83
2018-11-11T06:15:45.520Z,19.82
2018-11-11T06:16:46.036Z,19.83
2018-11-11T06:17:45.459Z,19.84
2018-11-11T06:18:45.370Z,19.83
2018-11-11T06:19:45.380Z,19.85
2018-11-11T06:20:45.222Z,19.85
2018-11-11T06:21:45.446Z,19.85
2018-11-11T06:22:45.462Z,19.85
2018-11-11T06:23:45.389Z,19.85
2018-11-11T06:24:45.506Z,19.85
2018-11-11T06:25:45.355Z,19.85
2018-11-11T06:26:45.489Z,19.84
2018-11-11T06:27:45.362Z,19.85
2018-11-11T06:28:45.968Z,19.84
2018-11-11T06:29:45.318Z,19.85
2018-11-11T06:30:45.518Z,19.86
2018-11-11T06:31:45.231Z,19.85
2018-11-11T06:32:45.186Z,19.86
2018-11-11T06:33:45.337Z,19.85
2018-11-11T06:34:45.618Z,19.86
2018-11-11T06:35:45.796Z,19.85
2018-11-11T06:36:45.685Z,19.86
2018-11-11T06:37:45.558Z,19.85
2018-11-11T06:38:45.403Z,19.86
2018-11-11T06:39:45.749Z,19.86
2018-11-11T06:40:45.705Z,19.87
2018-11-11T06:41:45.217Z,19.86
2018-11-11T06:42:45.203Z,19.86
2018-11-11T06:43:45.721Z,19.86
2018-11-11T06:44:45.455Z,19.85
2018-11-11T06:45:45.647Z,19.86
2018-11-11T06:46:45.681Z,19.86
2018-11-11T06:47:45.301Z,19.85
2018-11-11T06:48:45.520Z,19.86
2018-11-11T06:49:45.601Z,19.86
2018-11-11T06:50:45.201Z,19.86
2018-11-11T06:51:45.438Z,19.85
2018-11-11T06:52:45.418Z,19.86
2018-11-11T06:53:45.518Z,19.86
2018-11-11T06:54:45.600Z,19.87
2018-11-11T06:55:45.645Z,19.85
2018-11-11T06:56:45.476Z,19.85
2018-11-11T06:57:45.645Z,19.85
2018-11-11T06:58:45.649Z,19.86
2018-11-11T06:59:45.418Z,19.86
2018-11-11T07:00:45.276Z,19.85
2018-11-11T07:01:45.606Z,19.86
2018-11-11T07:02:45.511Z,19.85
2018-11-11T07:03:45.577Z,19.85
2018-11-11T07:04:45.898Z,19.85
2018-11-11T07:05:45.421Z,19.85
2018-11-11T07:06:45.297Z,19.86
2018-11-11T07:07:45.198Z,19.85
2018-11-11T07:08:45.196Z,19.85
2018-11-11T07:09:45.408Z,19.85
2018-11-11T07:10:45.530Z,19.85
2018-11-11T07:11:45.855Z,19.85
2018-11-11T07:12:45.349Z,19.85
2018-11-11T07:13:45.910Z,19.85
2018-11-11T07:14:45.240Z,19.85
2018-11-11T07:15:45.780Z,19.85
2018-11-11T07:16:45.209Z,19.85
2018-11-11T07:17:45.348Z,19.85
2018-11-11T07:18:45.675Z,19.85
2018-11-11T07:19:45.444Z,19.85
2018-11-11T07:20:45.249Z,19.85
2018-11-11T07:21:45.377Z,19.84
2018-11-11T07:22:45.804Z,19.85
2018-11-11T07:23:45.593Z,19.84
2018-11-11T07:24:45.284Z,19.84
2018-11-11T07:25:45.160Z,19.84
2018-11-11T07:26:45.428Z,19.85
2018-11-11T07:27:45.755Z,19.85
2018-11-11T07:28:45.659Z,19.83
2018-11-11T07:29:45.706Z,19.85
2018-11-11T07:30:45.364Z,19.84
2018-11-11T07:31:45.795Z,19.84
2018-11-11T07:32:45.204Z,19.84
2018-11-11T07:33:45.587Z,19.84
2018-11-11T07:34:45.201Z,19.85
2018-11-11T07:35:45.294Z,19.83
2018-11-11T07:36:45.924Z,19.84
2018-11-11T07:37:45.262Z,19.84
2018-11-11T07:38:45.385Z,19.84
2018-11-11T07:39:45.412Z,19.83
2018-11-11T07:40:45.428Z,19.83
2018-11-11T07:41:45.433Z,19.83
2018-11-11T07:42:45.341Z,19.84
2018-11-11T07:43:45.177Z,19.82
2018-11-11T07:44:45.236Z,19.83
2018-11-11T07:45:45.293Z,19.82
2018-11-11T07:46:45.275Z,19.82
2018-11-11T07:47:45.513Z,19.83
2018-11-11T07:48:45.298Z,19.82
2018-11-11T07:49:45.333Z,19.82
2018-11-11T07:50:45.211Z,19.82
2018-11-11T07:51:45.572Z,19.82
2018-11-11T07:52:45.279Z,19.82
2018-11-11T07:53:45.279Z,19.82
2018-11-11T07:54:45.619Z,19.83
2018-11-11T07:55:45.441Z,19.82
2018-11-11T07:56:45.374Z,19.8
2018-11-11T07:57:45.344Z,19.82
2018-11-11T07:58:45.394Z,19.82
2018-11-11T07:59:45.276Z,19.82
2018-11-11T08:00:45.596Z,19.83
2018-11-11T08:01:45.508Z,19.82
2018-11-11T08:02:45.622Z,19.83
2018-11-11T08:03:45.558Z,19.83
2018-11-11T08:04:45.599Z,19.83
2018-11-11T08:05:45.414Z,19.83
2018-11-11T08:06:45.227Z,19.82
2018-11-11T08:07:45.311Z,19.82
2018-11-11T08:08:45.640Z,19.83
2018-11-11T08:09:45.417Z,19.83
2018-11-11T08:10:45.760Z,19.83
2018-11-11T08:11:45.285Z,19.83
2018-11-11T08:12:45.435Z,19.83
2018-11-11T08:13:45.374Z,19.83
2018-11-11T08:14:45.728Z,19.83
2018-11-11T08:15:45.576Z,19.83
2018-11-11T08:16:45.416Z,19.83
2018-11-11T08:17:45.168Z,19.81
2018-11-11T08:18:46.021Z,19.82
2018-11-11T08:19:45.246Z,19.83
2018-11-11T08:20:45.211Z,19.83
2018-11-11T08:21:45.408Z,19.83
2018-11-11T08:22:45.364Z,19.82
2018-11-11T08:23:45.604Z,19.83
2018-11-11T08:24:45.282Z,19.83
2018-11-11T08:25:45.299Z,19.83
2018-11-11T08:26:45.304Z,19.83
2018-11-11T08:27:45.760Z,19.83
2018-11-11T08:28:45.641Z,19.83
2018-11-11T08:29:45.107Z,19.84
2018-11-11T08:30:45.607Z,19.83
2018-11-11T08:31:45.621Z,19.83
2018-11-11T08:32:45.407Z,19.83
2018-11-11T08:33:45.313Z,19.84
2018-11-11T08:34:45.528Z,19.84
2018-11-11T08:35:45.326Z,19.83
2018-11-11T08:36:45.629Z,19.84
2018-11-11T08:37:45.472Z,19.84
2018-11-11T08:38:45.152Z,19.85
2018-11-11T08:39:45.866Z,19.84
2018-11-11T08:40:45.299Z,19.84
2018-11-11T08:41:45.725Z,19.84
2018-11-11T08:42:45.584Z,19.84
2018-11-11T08:43:45.589Z,19.84
2018-11-11T08:44:45.296Z,19.84
2018-11-11T08:45:45.399Z,19.84
2018-11-11T08:46:45.503Z,19.84
2018-11-11T08:47:45.107Z,19.84
2018-11-11T08:48:45.434Z,19.84
2018-11-11T08:49:45.342Z,19.85
2018-11-11T08:50:45.482Z,19.83
2018-11-11T08:51:45.741Z,19.84
2018-11-11T08:52:45.557Z,19.85
2018-11-11T08:53:45.375Z,19.84
2018-11-11T08:54:45.816Z,19.84
2018-11-11T08:55:45.288Z,19.84
2018-11-11T08:56:45.103Z,19.85
2018-11-11T08:57:45.744Z,19.85
2018-11-11T08:58:45.268Z,19.86
2018-11-11T08:59:45.450Z,19.85
2018-11-11T09:00:45.403Z,19.85
2018-11-11T09:01:45.287Z,19.85
2018-11-11T09:02:45.224Z,19.84
2018-11-11T09:03:45.535Z,19.85
2018-11-11T09:04:45.265Z,19.85
2018-11-11T09:05:45.154Z,19.85
2018-11-11T09:06:45.695Z,19.86
2018-11-11T09:07:45.557Z,19.86
2018-11-11T09:08:45.636Z,19.86
2018-11-11T09:09:45.685Z,19.85
2018-11-11T09:10:45.422Z,19.85
2018-11-11T09:11:45.276Z,19.86
2018-11-11T09:12:45.339Z,19.86
2018-11-11T09:13:45.190Z,19.85
2018-11-11T09:14:45.195Z,19.85
2018-11-11T09:15:45.293Z,19.87
2018-11-11T09:16:45.307Z,19.86
2018-11-11T09:17:45.449Z,19.86
2018-11-11T09:18:45.364Z,19.86
2018-11-11T09:19:45.187Z,19.85
2018-11-11T09:20:45.449Z,19.86
2018-11-11T09:21:45.391Z,19.86
2018-11-11T09:22:45.249Z,19.86
2018-11-11T09:23:45.205Z,19.86
2018-11-11T09:24:45.568Z,19.86
2018-11-11T09:25:45.576Z,19.86
2018-11-11T09:26:45.205Z,19.86
2018-11-11T09:27:45.247Z,19.86
2018-11-11T09:28:45.498Z,19.86
2018-11-11T09:29:45.866Z,19.86
2018-11-11T09:30:45.305Z,19.86
2018-11-11T09:31:45.579Z,19.86
2018-11-11T09:32:45.341Z,19.87
2018-11-11T09:33:45.390Z,19.87
2018-11-11T09:34:45.273Z,19.86
2018-11-11T09:35:45.136Z,19.86
2018-11-11T09:36:45.518Z,19.86
2018-11-11T09:37:45.475Z,19.86
2018-11-11T09:38:45.715Z,19.87
2018-11-11T09:39:45.683Z,19.87
2018-11-11T09:40:45.192Z,19.87
2018-11-11T09:41:45.786Z,19.87
2018-11-11T09:42:45.237Z,19.87
2018-11-11T09:43:45.186Z,19.88
2018-11-11T09:44:45.212Z,19.86
2018-11-11T09:45:45.628Z,19.87
2018-11-11T09:46:45.378Z,19.87
2018-11-11T09:47:45.543Z,19.87
2018-11-11T09:48:45.425Z,19.87
2018-11-11T09:49:45.308Z,19.87
2018-11-11T09:50:45.537Z,19.87
2018-11-11T09:51:45.865Z,19.87
2018-11-11T09:52:45.296Z,19.87
2018-11-11T09:53:45.677Z,19.88
2018-11-11T09:54:45.361Z,19.86
2018-11-11T09:55:45.774Z,19.87
2018-11-11T09:56:45.693Z,19.87
2018-11-11T09:57:45.728Z,19.88
2018-11-11T09:58:45.349Z,19.87
2018-11-11T09:59:45.577Z,19.88
2018-11-11T10:00:45.660Z,19.87
2018-11-11T10:01:45.581Z,19.87
2018-11-11T10:02:45.296Z,19.88
2018-11-11T10:03:45.451Z,19.88
2018-11-11T10:04:45.572Z,19.88
2018-11-11T10:05:45.347Z,19.88
2018-11-11T10:06:45.363Z,19.87
2018-11-11T10:07:45.900Z,19.87
2018-11-11T10:08:45.397Z,19.87
2018-11-11T10:09:45.568Z,19.87
2018-11-11T10:10:45.136Z,19.88
2018-11-11T10:11:45.363Z,19.88
2018-11-11T10:12:45.537Z,19.88
2018-11-11T10:13:45.324Z,19.88
2018-11-11T10:14:45.555Z,19.88
2018-11-11T10:15:45.328Z,19.89
2018-11-11T10:16:45.280Z,19.87
2018-11-11T10:17:45.184Z,19.87
2018-11-11T10:18:45.576Z,19.88
2018-11-11T10:19:45.541Z,19.88
2018-11-11T10:20:45.388Z,19.88
2018-11-11T10:21:45.605Z,19.88
2018-11-11T10:22:45.172Z,19.87
2018-11-11T10:23:45.372Z,19.87
2018-11-11T10:24:45.190Z,19.87
2018-11-11T10:25:45.339Z,19.87
2018-11-11T10:26:45.283Z,19.87
2018-11-11T10:27:45.245Z,19.86
2018-11-11T10:28:45.567Z,19.87
2018-11-11T10:29:45.300Z,19.86
2018-11-11T10:30:45.604Z,19.86
2018-11-11T10:31:45.348Z,19.86
2018-11-11T10:32:45.236Z,19.89
2018-11-11T10:33:45.099Z,19.9
2018-11-11T10:34:45.472Z,19.91
2018-11-11T10:35:45.719Z,19.92
2018-11-11T10:36:45.408Z,19.92
2018-11-11T10:37:45.225Z,19.94
2018-11-11T10:38:45.367Z,19.93
2018-11-11T10:39:45.265Z,19.94
2018-11-11T10:40:45.716Z,19.94
2018-11-11T10:41:45.348Z,19.94
2018-11-11T10:42:45.400Z,19.95
2018-11-11T10:43:45.195Z,19.95
2018-11-11T10:44:45.271Z,19.96
2018-11-11T10:45:45.110Z,19.97
2018-11-11T10:46:45.555Z,19.97
2018-11-11T10:47:45.198Z,19.99
2018-11-11T10:48:45.218Z,19.99
2018-11-11T10:49:45.174Z,20.01
2018-11-11T10:50:45.264Z,20.02
2018-11-11T10:51:45.110Z,20.03
2018-11-11T10:52:45.321Z,20.03
2018-11-11T10:53:45.894Z,20.05
2018-11-11T10:54:45.264Z,20.05
2018-11-11T10:55:45.322Z,20.05
2018-11-11T10:56:45.281Z,20.05
2018-11-11T10:57:45.286Z,20.06
2018-11-11T10:58:45.416Z,20.06
2018-11-11T10:59:45.642Z,20.08
2018-11-11T11:00:45.058Z,20.08
2018-11-11T11:01:45.316Z,20.09
2018-11-11T11:02:45.323Z,20.08
2018-11-11T11:03:45.197Z,20.09
2018-11-11T11:04:45.444Z,20.1
2018-11-11T11:05:45.130Z,20.09
2018-11-11T11:06:45.594Z,20.1
2018-11-11T11:07:45.472Z,20.1
2018-11-11T11:08:45.241Z,20.11
2018-11-11T11:09:45.186Z,20.12
2018-11-11T11:10:45.704Z,20.12
2018-11-11T11:11:45.620Z,20.12
2018-11-11T11:12:45.184Z,20.14
2018-11-11T11:13:45.625Z,20.13
2018-11-11T11:14:45.102Z,20.14
2018-11-11T11:15:45.225Z,20.14
2018-11-11T11:16:45.711Z,20.15
2018-11-11T11:17:45.463Z,20.15
2018-11-11T11:18:45.389Z,20.15
2018-11-11T11:19:45.616Z,20.16
2018-11-11T11:20:45.802Z,20.16
2018-11-11T11:21:45.147Z,20.17
2018-11-11T11:22:45.539Z,20.17
2018-11-11T11:23:45.213Z,20.17
2018-11-11T11:24:45.192Z,20.17
2018-11-11T11:25:45.269Z,20.17
2018-11-11T11:26:45.286Z,20.17
2018-11-11T11:27:45.276Z,20.18
2018-11-11T11:28:46.008Z,20.17
2018-11-11T11:29:45.315Z,20.19
2018-11-11T11:30:45.304Z,20.18
2018-11-11T11:31:45.871Z,20.19
2018-11-11T11:32:45.174Z,20.2
2018-11-11T11:33:45.184Z,20.19
2018-11-11T11:34:45.489Z,20.21
2018-11-11T11:35:45.814Z,20.2
2018-11-11T11:36:45.249Z,20.21
2018-11-11T11:37:45.503Z,20.21
2018-11-11T11:38:45.101Z,20.21
2018-11-11T11:39:45.308Z,20.22
2018-11-11T11:40:45.566Z,20.22
2018-11-11T11:41:45.553Z,20.23
2018-11-11T11:42:45.445Z,20.23
2018-11-11T11:43:45.268Z,20.23
2018-11-11T11:44:45.722Z,20.23
2018-11-11T11:45:45.869Z,20.23
2018-11-11T11:46:45.575Z,20.23
2018-11-11T11:47:45.805Z,20.24
2018-11-11T11:48:45.219Z,20.26
2018-11-11T11:49:45.261Z,20.26
2018-11-11T11:50:45.669Z,20.26
2018-11-11T11:51:45.738Z,20.25
2018-11-11T11:52:45.270Z,20.25
2018-11-11T11:53:45.681Z,20.26
2018-11-11T11:54:45.356Z,20.26
2018-11-11T11:55:45.386Z,20.26
2018-11-11T11:56:45.079Z,20.27
2018-11-11T11:57:45.297Z,20.27
2018-11-11T11:58:45.585Z,20.29
2018-11-11T11:59:45.126Z,20.28
2018-11-11T12:00:45.333Z,20.29
2018-11-11T12:01:45.465Z,20.28
2018-11-11T12:02:45.610Z,20.29
2018-11-11T12:03:45.399Z,20.3
2018-11-11T12:04:45.247Z,20.3
2018-11-11T12:05:45.118Z,20.3
2018-11-11T12:06:45.510Z,20.3
2018-11-11T12:07:45.548Z,20.3
2018-11-11T12:08:45.342Z,20.3
2018-11-11T12:09:45.173Z,20.32
2018-11-11T12:10:45.372Z,20.32
2018-11-11T12:11:45.809Z,20.33
2018-11-11T12:12:45.891Z,20.33
2018-11-11T12:13:45.150Z,20.33
2018-11-11T12:14:45.588Z,20.33
2018-11-11T12:15:45.208Z,20.33
2018-11-11T12:16:45.341Z,20.31
2018-11-11T12:17:45.078Z,20.31
2018-11-11T12:18:45.304Z,20.3
2018-11-11T12:19:45.471Z,20.3
2018-11-11T12:20:45.423Z,20.3
2018-11-11T12:21:45.069Z,20.29
2018-11-11T12:22:45.384Z,20.29
2018-11-11T12:23:45.105Z,20.29
2018-11-11T12:24:45.144Z,20.28
2018-11-11T12:25:45.354Z,20.28
2018-11-11T12:26:45.289Z,20.28
2018-11-11T12:27:45.241Z,20.27
2018-11-11T12:28:45.182Z,20.27
2018-11-11T12:29:45.326Z,20.26
2018-11-11T12:30:45.192Z,20.26
2018-11-11T12:31:45.611Z,20.26
2018-11-11T12:32:45.191Z,20.25
2018-11-11T12:33:45.201Z,20.26
2018-11-11T12:34:45.251Z,20.25
2018-11-11T12:35:45.297Z,20.25
2018-11-11T12:36:45.668Z,20.25
2018-11-11T12:37:45.257Z,20.25
2018-11-11T12:38:45.362Z,20.24
2018-11-11T12:39:45.380Z,20.24
2018-11-11T12:40:45.147Z,20.24
2018-11-11T12:41:45.465Z,20.23
2018-11-11T12:42:45.399Z,20.23
2018-11-11T12:43:45.240Z,20.23
2018-11-11T12:44:45.205Z,20.23
2018-11-11T12:45:45.290Z,20.22
2018-11-11T12:46:46.052Z,20.22
2018-11-11T12:47:45.264Z,20.23
2018-11-11T12:48:45.299Z,20.22
2018-11-11T12:49:45.684Z,20.22
2018-11-11T12:50:45.349Z,20.21
2018-11-11T12:51:45.462Z,20.21
2018-11-11T12:52:45.268Z,20.21
2018-11-11T12:53:45.244Z,20.2
2018-11-11T12:54:45.255Z,20.2
2018-11-11T12:55:46.069Z,20.21